Time;durP1;ratioP1;P1;durP2;ratioP2;P2;SDS_P1;SDS_P2;PMS_P1;PMS_P2;Temp;Humidity;BMP_temperature;BMP_pressure;BME280_temperature;BME280_humidity;BME280_pressure;Samples;Min_cycle;Max_cycle;Signal;HPM_P1;HPM_P2
2023/10/14 00:01:28;;;;;;;17.65;11.53;;;;;;;15.96;92.89;99498.77;1674347;84;27422;-75
2023/10/14 00:03:56;;;;;;;19.90;10.98;;;;;;;15.92;93.00;99505.53;1674240;85;25680;-74
2023/10/14 00:06:24;;;;;;;19.12;11.10;;;;;;;15.91;93.04;99502.58;1674336;85;26341;-72
2023/10/14 00:09:11;;;;;;;21.55;11.33;;;;;;;15.88;93.18;99497.85;1674305;85;25755;-72
2023/10/14 00:11:43;;;;;;;16.23;11.18;;;;;;;15.85;93.40;99510.29;1674572;84;25692;-74
2023/10/14 00:14:14;;;;;;;20.12;10.75;;;;;;;15.83;93.21;99501.69;1675040;84;27400;-71
2023/10/14 00:16:41;;;;;;;18.43;11.47;;;;;;;15.82;93.18;99506.92;1674956;84;25691;-72
2023/10/14 00:19:08;;;;;;;17.40;11.28;;;;;;;15.81;93.38;99507.28;1674988;85;25678;-72
2023/10/14 00:21:35;;;;;;;21.12;11.50;;;;;;;15.77;93.10;99491.45;1674549;84;25626;-73
2023/10/14 00:24:06;;;;;;;18.23;11.20;;;;;;;15.76;93.35;99487.91;1675343;85;25622;-72
2023/10/14 00:26:34;;;;;;;22.82;10.95;;;;;;;15.74;93.52;99485.32;1675080;85;27348;-70
2023/10/14 00:29:19;;;;;;;17.92;11.48;;;;;;;15.72;93.57;99488.99;1675005;84;25633;-71
2023/10/14 00:31:34;;;;;;;20.43;12.03;;;;;;;15.70;93.48;99479.81;1670990;85;25390;-71
2023/10/14 00:34:00;;;;;;;15.98;11.20;;;;;;;15.67;93.61;99477.22;1675039;85;26246;-72
2023/10/14 00:36:31;;;;;;;19.20;10.50;;;;;;;15.65;93.60;99481.48;1675094;85;25543;-72
2023/10/14 00:38:58;;;;;;;16.75;11.18;;;;;;;15.63;93.95;99483.20;1675261;84;27943;-71
2023/10/14 00:41:28;;;;;;;;;;;;;;;15.62;93.83;99474.80;1677471;85;25700;-72
2023/10/14 00:43:56;;;;;;;18.02;11.08;;;;;;;15.61;94.07;99468.34;1675117;85;25635;-73
2023/10/14 00:46:30;;;;;;;17.23;11.00;;;;;;;15.58;93.96;99462.25;1675148;85;25684;-72
2023/10/14 00:48:58;;;;;;;22.98;10.93;;;;;;;15.56;94.24;99460.47;1675187;84;25397;-72
2023/10/14 00:51:26;;;;;;;19.80;11.43;;;;;;;15.54;94.29;99460.83;1675070;83;27375;-72
2023/10/14 00:53:55;;;;;;;19.05;10.93;;;;;;;15.53;94.41;99466.08;1675117;85;25390;-72
2023/10/14 00:56:28;;;;;;;19.55;10.53;;;;;;;15.52;93.91;99465.08;1675248;84;25458;-72
2023/10/14 00:59:03;;;;;;;17.10;9.98;;;;;;;15.49;94.02;99457.84;1649012;85;26181;-73
2023/10/14 01:01:50;;;;;;;17.37;11.08;;;;;;;15.49;94.22;99454.31;1675100;85;25465;-74
2023/10/14 01:04:31;;;;;;;17.80;10.23;;;;;;;15.47;93.96;99449.22;1674515;85;27359;-74
2023/10/14 01:17:30;;;;;;;16.25;10.48;;;;;;;15.44;94.15;99442.34;1628928;87;27358;-73
2023/10/14 01:22:43;;;;;;;17.77;10.30;;;;;;;15.41;94.14;99434.89;1684922;85;25680;-71
2023/10/14 01:25:15;;;;;;;18.57;10.55;;;;;;;15.40;94.04;99424.58;1684844;85;26137;-71
2023/10/14 01:27:44;;;;;;;17.35;10.63;;;;;;;15.39;93.96;99431.20;1684927;85;25652;-71
2023/10/14 01:30:19;;;;;;;19.00;10.05;;;;;;;15.37;93.90;99421.80;1684900;85;27948;-74
2023/10/14 01:35:22;;;;;;;15.13;9.50;;;;;;;15.34;93.79;99410.25;1684998;85;25509;-73
2023/10/14 01:37:45;;;;;;;19.67;10.28;;;;;;;15.33;93.77;99405.38;1683626;85;25824;-73
2023/10/14 01:40:49;;;;;;;24.85;11.22;;;;;;;15.31;93.81;99403.02;1684732;85;25682;-73
2023/10/14 01:42:46;;;;;;;18.95;10.90;;;;;;;15.31;93.80;99398.16;1683079;85;27324;-73
2023/10/14 01:45:15;;;;;;;20.62;10.25;;;;;;;15.30;93.69;99401.44;1684901;85;25634;-73
2023/10/14 01:47:48;;;;;;;19.17;9.93;;;;;;;15.28;93.84;99394.20;1684843;85;25593;-74
2023/10/14 01:50:12;;;;;;;18.42;10.48;;;;;;;15.29;93.69;99390.92;1684086;85;25640;-74
2023/10/14 01:52:38;;;;;;;16.93;10.13;;;;;;;15.28;93.46;99388.75;1684907;85;25664;-74
2023/10/14 01:55:06;;;;;;;23.15;10.75;;;;;;;15.27;93.60;99386.39;1713265;83;27342;-73
2023/10/14 01:57:33;;;;;;;19.20;10.18;;;;;;;15.27;93.57;99382.30;1726545;81;25404;-73
2023/10/14 02:00:00;;;;;;;19.23;9.95;;;;;;;15.26;93.59;99380.16;1752742;81;25536;-72
2023/10/14 02:02:27;;;;;;;15.53;10.43;;;;;;;15.26;93.53;99378.80;1752695;81;25633;-73
2023/10/14 02:04:56;;;;;;;21.42;10.30;;;;;;;15.24;93.48;99377.02;1752741;81;25465;-73
2023/10/14 02:07:23;;;;;;;19.95;10.98;;;;;;;15.25;93.36;99380.52;1752686;81;27306;-73
2023/10/14 02:09:49;;;;;;;21.85;10.48;;;;;;;15.24;93.37;99372.16;1752652;81;25616;-73
2023/10/14 02:12:18;;;;;;;18.67;10.55;;;;;;;15.24;93.40;99377.02;1753394;81;25470;-73
2023/10/14 02:14:57;;;;;;;16.20;10.50;;;;;;;15.23;93.51;99360.45;1753321;81;25615;-74
2023/10/14 02:17:13;;;;;;;20.62;10.25;;;;;;;15.23;93.16;99354.22;1752934;81;25308;-73
2023/10/14 02:19:41;;;;;;;18.92;10.15;;;;;;;15.21;93.32;99350.50;1752881;81;27887;-73
2023/10/14 02:22:11;;;;;;;20.43;10.00;;;;;;;15.20;93.28;99349.50;1752753;81;25691;-74
2023/10/14 02:24:37;;;;;;;;;;;;;;;15.18;93.22;99347.13;1755457;81;25490;-74
2023/10/14 02:27:11;;;;;;;22.67;9.68;;;;;;;15.18;93.23;99338.19;1752836;81;25667;-71
2023/10/14 02:29:46;;;;;;;16.27;10.03;;;;;;;15.16;93.00;99335.05;1752873;81;25407;-70
2023/10/14 02:32:13;;;;;;;19.10;10.28;;;;;;;15.13;93.13;99325.64;1752863;81;27346;-70
2023/10/14 02:34:44;;;;;;;19.90;10.53;;;;;;;15.13;93.08;99325.06;1752736;81;25589;-70
2023/10/14 02:37:13;;;;;;;18.48;10.08;;;;;;;15.11;93.01;99319.20;1752706;81;25548;-70
2023/10/14 02:39:38;;;;;;;17.12;9.78;;;;;;;15.10;93.10;99322.28;1752596;81;25652;-72
2023/10/14 02:44:44;;;;;;;20.75;9.90;;;;;;;15.11;92.97;99318.42;1752821;81;27976;-73
2023/10/14 02:47:04;;;;;;;21.73;10.25;;;;;;;15.10;92.98;99317.64;1748538;81;25430;-72
2023/10/14 02:49:40;;;;;;;18.87;10.23;;;;;;;15.10;92.96;99319.00;1752808;81;25452;-73
2023/10/14 02:52:18;;;;;;;18.12;9.53;;;;;;;15.11;92.81;99315.70;1752034;81;25701;-72
2023/10/14 02:54:45;;;;;;;20.90;10.85;;;;;;;15.12;92.77;99312.61;1752388;80;25462;-72
2023/10/14 02:57:28;;;;;;;18.62;10.15;;;;;;;15.11;92.54;99315.11;1752751;81;27335;-72
2023/10/14 02:59:56;;;;;;;18.40;10.25;;;;;;;15.11;92.70;99311.02;1745289;81;25543;-72
2023/10/14 03:05:08;;;;;;;14.47;9.70;;;;;;;15.14;92.53;99310.89;1744525;82;25611;-72
2023/10/14 03:07:33;;;;;;;16.50;10.03;;;;;;;15.16;92.31;99307.80;1742992;82;25606;-71
2023/10/14 03:10:20;;;;;;;16.27;10.18;;;;;;;15.16;92.23;99292.83;1744516;82;27319;-72
2023/10/14 03:12:49;;;;;;;19.17;9.98;;;;;;;15.17;91.91;99300.64;1744464;82;25457;-72
2023/10/14 03:15:20;;;;;;;22.35;10.80;;;;;;;15.17;91.69;99293.02;1744557;82;25449;-73
2023/10/14 03:18:03;;;;;;;19.37;10.03;;;;;;;15.16;91.80;99287.38;1744513;82;25658;-73
2023/10/14 03:23:23;;;;;;;15.75;10.55;;;;;;;15.15;91.42;99280.34;1744017;82;27327;-72
2023/10/14 03:25:53;;;;;;;17.55;10.28;;;;;;;15.15;91.54;99278.98;1744678;82;25572;-71
2023/10/14 03:28:24;;;;;;;16.75;10.15;;;;;;;15.12;91.37;99266.31;1744549;82;25397;-71
2023/10/14 03:30:58;;;;;;;19.52;10.50;;;;;;;15.11;91.23;99266.67;1744491;82;25772;-70
2023/10/14 03:33:27;;;;;;;19.87;10.65;;;;;;;15.09;91.21;99259.45;1744576;82;25616;-70
2023/10/14 03:36:05;;;;;;;19.42;11.38;;;;;;;15.05;91.18;99251.78;1744450;82;27317;-71
2023/10/14 03:41:15;;;;;;;18.20;10.55;;;;;;;15.03;91.08;99239.11;1744528;82;25406;-74
2023/10/14 03:46:32;;;;;;;19.00;10.45;;;;;;;14.96;91.29;99219.36;1744566;82;25395;-74
2023/10/14 03:49:11;;;;;;;18.10;10.53;;;;;;;14.93;91.30;99211.36;1744501;82;28027;-74
2023/10/14 03:51:35;;;;;;;19.67;11.03;;;;;;;14.93;91.43;99207.83;1743810;82;25405;-71
2023/10/14 03:54:13;;;;;;;22.67;11.20;;;;;;;14.90;91.21;99199.05;1744535;82;25393;-71
2023/10/14 03:56:46;;;;;;;26.30;11.00;;;;;;;14.87;91.32;99193.74;1744497;82;25654;-73
2023/10/14 03:59:22;;;;;;;17.62;10.35;;;;;;;14.86;91.19;99200.33;1744500;81;25489;-72
2023/10/14 04:02:01;;;;;;;18.87;10.43;;;;;;;14.85;91.22;99186.52;1744590;82;27340;-72
2023/10/14 04:04:29;;;;;;;19.00;10.03;;;;;;;14.84;91.33;99180.85;1744773;82;25641;-73
2023/10/14 04:09:43;;;;;;;21.02;10.15;;;;;;;14.83;91.34;99178.50;1744527;82;25684;-72
2023/10/14 04:12:12;;;;;;;13.70;9.40;;;;;;;14.83;91.43;99172.50;1743859;82;25620;-72
2023/10/14 04:14:40;;;;;;;19.55;10.40;;;;;;;14.81;91.47;99177.50;1744601;82;27426;-73
2023/10/14 04:19:47;;;;;;;13.25;9.33;;;;;;;14.84;91.41;99186.30;1679805;84;25519;-73
2023/10/14 04:27:35;;;;;;;15.30;9.80;;;;;;;14.82;91.07;99168.77;1681956;85;27353;-72
2023/10/14 04:30:10;;;;;;;18.55;9.25;;;;;;;14.82;91.22;99172.86;1681270;85;25544;-73
2023/10/14 04:32:42;;;;;;;13.48;10.08;;;;;;;14.83;91.07;99168.97;1679966;85;25685;-69
2023/10/14 04:35:02;;;;;;;15.05;9.48;;;;;;;14.84;90.92;99169.97;1679957;85;26252;-70
2023/10/14 04:37:50;;;;;;;18.27;9.50;;;;;;;14.84;90.75;99164.52;1681319;85;25626;-71
2023/10/14 04:40:15;;;;;;;16.80;9.60;;;;;;;14.83;90.82;99165.69;1678562;85;27335;-72
2023/10/14 04:42:42;;;;;;;18.55;9.68;;;;;;;14.83;90.65;99168.41;1679375;85;25690;-72
2023/10/14 04:45:12;;;;;;;22.22;9.50;;;;;;;14.82;90.60;99157.30;1681306;85;25586;-72
2023/10/14 04:47:38;;;;;;;17.17;9.55;;;;;;;14.81;90.63;99155.72;1681300;85;26070;-72
2023/10/14 04:50:16;;;;;;;;;;;;;;;14.82;90.60;99153.80;1660847;85;25673;-73
2023/10/14 04:52:48;;;;;;;17.95;9.88;;;;;;;14.81;90.55;99153.00;1682089;85;27353;-72
2023/10/14 04:58:08;;;;;;;20.90;9.38;;;;;;;14.79;90.37;99134.11;1713964;83;25430;-72
2023/10/14 05:00:31;;;;;;;21.27;10.03;;;;;;;14.77;90.38;99136.42;1683097;85;26286;-72
2023/10/14 05:02:47;;;;;;;17.52;9.45;;;;;;;14.75;90.27;99134.84;1719803;83;25444;-72
2023/10/14 05:05:19;;;;;;;19.00;9.10;;;;;;;14.73;90.26;99131.70;1736866;82;27886;-72
2023/10/14 05:07:42;;;;;;;18.75;9.95;;;;;;;14.73;90.27;99126.84;1744424;82;25729;-72
2023/10/14 05:10:10;;;;;;;15.13;9.48;;;;;;;14.72;90.22;99134.78;1744476;82;25415;-72
2023/10/14 05:12:51;;;;;;;15.38;8.95;;;;;;;14.71;90.26;99133.20;1744419;82;25643;-73
2023/10/14 05:15:21;;;;;;;16.55;8.83;;;;;;;14.71;90.27;99142.17;1741945;82;25451;-72
2023/10/14 05:18:00;;;;;;;16.35;8.65;;;;;;;14.70;90.29;99128.34;1744459;82;27323;-74
2023/10/14 11:20:46;;;;;;;13.55;6.95;;;;;;;21.63;55.27;99029.70;1839742;77;25336;-62
2023/10/14 11:23:17;;;;;;;14.40;7.30;;;;;;;21.56;53.69;99036.69;1737057;82;25693;-70
2023/10/14 11:25:54;;;;;;;15.03;7.45;;;;;;;21.58;54.65;99032.92;1737102;82;27471;-66
2023/10/14 11:28:26;;;;;;;15.43;6.92;;;;;;;21.61;54.75;99032.87;1805845;79;26993;-65
2023/10/14 11:30:55;;;;;;;12.18;6.33;;;;;;;21.67;54.95;99033.78;1737124;82;25510;-67
2023/10/14 11:33:22;;;;;;;12.93;6.85;;;;;;;21.72;54.98;99034.69;1805835;79;25471;-64
2023/10/14 11:35:51;;;;;;;14.75;7.10;;;;;;;21.75;54.87;99040.14;1806241;79;25584;-67
2023/10/14 11:38:18;;;;;;;16.90;6.70;;;;;;;21.80;54.66;99045.78;1806145;79;27706;-71
2023/10/14 11:40:51;;;;;;;13.88;7.25;;;;;;;21.82;54.58;99045.53;1805762;79;25423;-69
2023/10/14 11:45:57;;;;;;;14.87;6.45;;;;;;;21.88;54.03;99051.37;1717506;81;25523;-71
2023/10/14 11:48:28;;;;;;;15.93;6.65;;;;;;;21.93;53.61;99047.34;1713264;83;25612;-71
2023/10/14 11:51:02;;;;;;;14.05;6.15;;;;;;;21.95;52.87;99043.60;1713262;83;28034;-72
2023/10/14 11:53:32;;;;;;;16.15;6.78;;;;;;;21.98;53.17;99053.76;1713226;83;25620;-68
2023/10/14 11:56:02;;;;;;;12.82;6.35;;;;;;;22.00;53.33;99059.05;1713236;83;25497;-66
2023/10/14 11:58:33;;;;;;;12.68;6.08;;;;;;;22.01;53.41;99052.93;1713190;83;25573;-67
2023/10/14 12:01:00;;;;;;;13.70;6.45;;;;;;;21.94;53.60;99056.56;1709133;83;25637;-64
2023/10/14 12:03:28;;;;;;;15.43;8.60;;;;;;;21.87;53.46;99055.30;1706792;84;28035;-64
2023/10/14 12:05:59;;;;;;;15.35;7.28;;;;;;;21.75;53.71;99051.14;1706688;84;25609;-65
2023/10/14 12:08:32;;;;;;;16.50;5.95;;;;;;;21.63;53.96;99049.73;1706782;84;25628;-66
2023/10/14 12:11:03;;;;;;;12.35;7.15;;;;;;;21.55;54.04;99051.62;1706758;84;25619;-65
2023/10/14 12:13:28;;;;;;;10.55;6.67;;;;;;;21.48;54.57;99058.00;1706712;83;25462;-64
2023/10/14 12:15:55;;;;;;;11.53;7.30;;;;;;;21.42;54.68;99065.14;1706878;84;28469;-66
2023/10/14 12:18:22;;;;;;;12.07;6.58;;;;;;;21.37;54.72;99066.97;1706646;84;25609;-69
2023/10/14 12:20:50;;;;;;;14.35;6.72;;;;;;;21.32;54.81;99055.82;1706764;84;25539;-70
2023/10/14 12:23:20;;;;;;;13.93;5.83;;;;;;;21.29;55.14;99058.63;1706755;84;25435;-67
2023/10/14 12:25:48;;;;;;;10.10;6.25;;;;;;;21.26;54.98;99078.08;1706794;84;25576;-66
2023/10/14 12:28:26;;;;;;;15.70;6.53;;;;;;;21.20;55.40;99059.89;1706786;84;28165;-72
2023/10/14 12:30:46;;;;;;;14.05;6.67;;;;;;;21.17;55.44;99063.45;1704257;83;25399;-72
2023/10/14 12:33:19;;;;;;;11.95;6.83;;;;;;;21.16;55.34;99060.52;1706258;84;25426;-67
2023/10/14 12:35:51;;;;;;;12.33;6.35;;;;;;;21.16;55.81;99063.86;1706281;84;25501;-66
2023/10/14 12:38:19;;;;;;;11.80;6.90;;;;;;;21.13;55.72;99062.73;1706048;83;25424;-70
2023/10/14 12:40:43;;;;;;;11.43;6.37;;;;;;;21.14;55.88;99062.13;1696100;84;28335;-72
2023/10/14 12:43:15;;;;;;;12.82;6.95;;;;;;;21.11;56.06;99067.84;1696363;84;25429;-63
2023/10/14 12:45:43;;;;;;;12.58;6.62;;;;;;;21.06;55.97;99058.66;1716808;83;25663;-72
2023/10/14 12:48:10;;;;;;;14.83;7.45;;;;;;;21.03;56.10;99065.78;1725985;83;25421;-67
2023/10/14 12:50:40;;;;;;;19.23;6.90;;;;;;;21.01;56.53;99066.78;1726026;83;25577;-66
2023/10/14 12:53:09;;;;;;;11.10;6.17;;;;;;;21.01;56.25;99059.11;1726057;83;28034;-65
2023/10/14 12:55:36;;;;;;;12.45;6.60;;;;;;;21.01;56.63;99054.99;1726034;83;25644;-67
2023/10/14 12:58:05;;;;;;;16.15;6.87;;;;;;;21.00;56.80;99048.72;1688437;85;25459;-68
2023/10/14 13:00:32;;;;;;;14.47;6.75;;;;;;;21.03;57.76;99051.27;1688414;84;25581;-68
2023/10/14 13:03:00;;;;;;;17.15;6.67;;;;;;;21.02;57.39;99061.45;1688447;85;25621;-66
2023/10/14 13:05:28;;;;;;;13.95;7.35;;;;;;;21.06;57.33;99061.41;1688781;85;27454;-66
2023/10/14 13:07:57;;;;;;;17.02;6.97;;;;;;;21.05;57.37;99060.64;1688607;85;25700;-67
2023/10/14 13:10:25;;;;;;;12.45;6.95;;;;;;;21.11;57.41;99064.31;1688400;85;25567;-66
2023/10/14 13:12:56;;;;;;;16.87;6.55;;;;;;;21.12;57.17;99061.16;1688516;85;25412;-64
2023/10/14 13:15:29;;;;;;;13.98;6.50;;;;;;;21.16;56.95;99055.62;1688582;85;25638;-67
2023/10/14 13:18:07;;;;;;;12.25;6.67;;;;;;;21.16;57.19;99059.14;1688465;84;27013;-64
2023/10/14 13:20:36;;;;;;;14.35;6.60;;;;;;;21.15;57.02;99059.57;1688325;85;25597;-64
2023/10/14 13:23:07;;;;;;;15.60;7.22;;;;;;;21.13;57.19;99068.80;1688458;85;25397;-64
2023/10/14 13:25:37;;;;;;;11.75;5.97;;;;;;;21.08;57.13;99057.08;1687750;84;25490;-63
2023/10/14 13:28:09;;;;;;;10.32;6.17;;;;;;;21.07;56.99;99071.23;1688457;85;25468;-62
2023/10/14 13:30:46;;;;;;;13.00;6.55;;;;;;;21.03;56.93;99058.91;1688436;85;27611;-63
2023/10/14 13:33:16;;;;;;;11.97;5.87;;;;;;;21.03;56.87;99069.13;1688308;85;25392;-60
2023/10/14 13:35:46;;;;;;;14.98;6.35;;;;;;;21.00;56.66;99078.95;1688446;85;25627;-62
2023/10/14 13:38:13;;;;;;;13.90;6.03;;;;;;;21.00;56.34;99078.19;1688402;85;26242;-61
2023/10/14 13:40:41;;;;;;;14.00;6.05;;;;;;;20.96;56.27;99073.30;1688439;85;25649;-62
2023/10/14 13:43:09;;;;;;;10.00;5.78;;;;;;;20.94;56.48;99071.56;1688381;84;28191;-62
2023/10/14 13:45:40;;;;;;;12.82;6.20;;;;;;;20.91;56.40;99064.94;1697154;84;25622;-60
2023/10/14 13:48:07;;;;;;;11.50;5.45;;;;;;;20.88;56.45;99081.63;1706186;83;25500;-63
2023/10/14 13:50:39;;;;;;;11.35;5.20;;;;;;;20.83;56.57;99075.80;1706330;84;25558;-63
2023/10/14 13:53:17;;;;;;;10.78;4.97;;;;;;;20.79;56.16;99083.29;1706307;83;25405;-64
2023/10/14 13:55:45;;;;;;;9.43;5.00;;;;;;;20.77;56.39;99083.72;1706257;84;28143;-62
2023/10/14 13:58:12;;;;;;;10.75;3.85;;;;;;;20.76;55.93;99082.75;1706106;83;25544;-61
2023/10/14 14:00:44;;;;;;;6.00;3.05;;;;;;;20.73;55.51;99100.05;1706185;83;25339;-68
2023/10/14 14:03:14;;;;;;;4.55;2.60;;;;;;;20.72;55.38;99080.02;1696359;84;25596;-67
2023/10/14 14:05:51;;;;;;;16.82;12.98;;;;;;;20.67;55.11;99089.50;1696393;84;25411;-67
2023/10/14 14:08:25;;;;;;;4.10;2.47;;;;;;;20.65;55.17;99093.83;1696401;83;27832;-67
2023/10/14 14:10:48;;;;;;;8.30;2.52;;;;;;;20.62;54.96;99107.80;1695844;84;25637;-67
2023/10/14 14:13:19;;;;;;;8.85;2.30;;;;;;;20.59;54.85;99092.69;1696391;84;25541;-66
2023/10/14 14:15:47;;;;;;;5.20;1.98;;;;;;;20.57;54.79;99108.20;1696355;84;25408;-66
2023/10/14 14:18:16;;;;;;;6.40;1.80;;;;;;;20.57;55.00;99108.77;1696369;84;25427;-66
2023/10/14 14:20:45;;;;;;;4.47;2.00;;;;;;;20.52;55.01;99108.64;1696337;84;27397;-76
2023/10/14 14:23:13;;;;;;;2.95;1.87;;;;;;;20.49;54.86;99114.33;1696295;84;25450;-65
2023/10/14 14:25:40;;;;;;;7.77;2.57;;;;;;;20.46;55.10;99121.23;1696578;84;25476;-65
2023/10/14 14:28:09;;;;;;;4.53;2.47;;;;;;;20.42;55.37;99125.37;1696332;84;25732;-63
2023/10/14 14:30:37;;;;;;;7.40;2.20;;;;;;;20.37;55.09;99133.27;1696584;84;25603;-66
2023/10/14 14:33:07;;;;;;;9.33;2.30;;;;;;;20.33;55.32;99140.17;1696454;84;27561;-63
2023/10/14 14:35:34;;;;;;;4.72;2.50;;;;;;;20.28;55.49;99161.19;1696358;84;26165;-64
2023/10/14 14:38:02;;;;;;;5.37;2.15;;;;;;;20.19;56.86;99186.91;1696381;84;25602;-65
2023/10/14 14:40:32;;;;;;;9.28;3.33;;;;;;;20.03;57.64;99186.03;1696391;84;25227;-66
2023/10/14 14:42:59;;;;;;;8.83;2.87;;;;;;;19.85;60.28;99189.61;1696583;84;25477;-65
2023/10/14 14:45:28;;;;;;;5.28;3.00;;;;;;;19.57;61.09;99193.23;1702216;83;28227;-64
2023/10/14 14:48:00;;;;;;;8.58;3.62;;;;;;;19.33;62.37;99204.45;1687165;85;25850;-68
2023/10/14 14:50:34;;;;;;;8.80;3.20;;;;;;;19.09;64.19;99210.95;1687169;85;25465;-66
2023/10/14 14:53:02;;;;;;;9.75;3.22;;;;;;;18.81;64.62;99212.50;1687126;84;25818;-67
2023/10/14 14:55:30;;;;;;;9.98;3.37;;;;;;;18.61;65.17;99219.49;1687311;84;25390;-67
2023/10/14 14:57:58;;;;;;;6.62;3.80;;;;;;;18.43;66.49;99225.73;1687290;85;28492;-66
2023/10/14 15:00:28;;;;;;;3.90;3.10;;;;;;;18.25;67.45;99224.89;1686974;84;26254;-66
2023/10/14 15:03:00;;;;;;;6.08;3.37;;;;;;;18.11;68.85;99236.58;1687164;84;25605;-65
2023/10/14 15:05:35;;;;;;;7.20;3.20;;;;;;;17.94;69.48;99234.56;1687132;84;25658;-71
2023/10/14 15:08:04;;;;;;;7.67;3.87;;;;;;;17.81;69.85;99220.40;1687187;85;25647;-67
2023/10/14 15:10:36;;;;;;;5.50;4.40;;;;;;;17.69;71.15;99216.84;1687308;85;27483;-67
2023/10/14 15:13:06;;;;;;;8.93;5.00;;;;;;;17.57;72.16;99222.65;1687053;85;25415;-67
2023/10/14 15:15:36;;;;;;;8.20;4.37;;;;;;;17.47;72.24;99243.28;1687163;84;25617;-67
2023/10/14 15:18:04;;;;;;;10.23;5.60;;;;;;;17.40;73.02;99245.17;1687081;85;25685;-67
2023/10/14 15:20:33;;;;;;;6.80;4.47;;;;;;;17.34;73.80;99246.89;1687328;83;25616;-63
2023/10/14 15:23:05;;;;;;;7.25;4.47;;;;;;;17.28;74.54;99248.43;1687230;85;27848;-64
2023/10/14 15:25:36;;;;;;;9.43;4.75;;;;;;;17.20;74.57;99242.70;1685749;85;25586;-64
2023/10/14 15:28:01;;;;;;;9.03;4.87;;;;;;;17.11;75.61;99244.96;1686764;85;25485;-66
2023/10/14 15:30:28;;;;;;;9.70;4.50;;;;;;;17.03;75.96;99247.45;1687071;85;25576;-65
2023/10/14 15:32:55;;;;;;;8.70;5.00;;;;;;;16.97;76.57;99241.53;1687086;85;25578;-66
2023/10/14 15:35:26;;;;;;;7.67;4.87;;;;;;;16.93;76.61;99231.17;1687110;85;28312;-66
2023/10/14 15:37:57;;;;;;;9.43;4.97;;;;;;;16.91;77.25;99250.67;1687026;85;25406;-66
2023/10/14 15:40:28;;;;;;;8.83;5.25;;;;;;;16.90;77.94;99255.91;1687084;85;25466;-65
2023/10/14 15:42:54;;;;;;;9.43;5.08;;;;;;;16.87;78.13;99253.93;1687020;84;25981;-68
2023/10/14 15:45:24;;;;;;;7.97;4.97;;;;;;;16.87;78.29;99246.33;1688940;83;25623;-67
2023/10/14 15:47:55;;;;;;;10.85;5.80;;;;;;;16.85;78.81;99240.46;1706162;83;27887;-68
2023/10/14 15:50:26;;;;;;;10.38;6.45;;;;;;;16.83;79.58;99240.03;1696261;84;25565;-67
2023/10/14 15:52:56;;;;;;;12.28;6.22;;;;;;;16.79;79.58;99232.59;1696340;84;25617;-65
2023/10/14 15:55:28;;;;;;;9.15;5.78;;;;;;;16.79;80.01;99223.62;1696274;84;25680;-65
2023/10/14 15:57:59;;;;;;;13.00;5.40;;;;;;;16.77;80.44;99223.99;1696338;84;25471;-64
2023/10/14 16:00:27;;;;;;;10.35;5.28;;;;;;;16.73;80.22;99209.50;1696317;84;27612;-65
2023/10/14 16:02:58;;;;;;;6.03;4.42;;;;;;;16.72;80.68;99209.88;1696352;84;25700;-64
2023/10/14 16:05:27;;;;;;;6.67;5.58;;;;;;;16.67;80.40;99212.39;1696349;84;25655;-63
2023/10/14 16:07:59;;;;;;;5.35;3.83;;;;;;;16.58;80.06;99231.81;1696533;84;25479;-63
2023/10/14 16:10:28;;;;;;;6.85;4.28;;;;;;;16.53;80.30;99251.82;1696462;84;25581;-64
2023/10/14 16:12:58;;;;;;;10.00;4.17;;;;;;;16.46;80.46;99275.73;1696564;84;27532;-64
2023/10/14 16:15:30;;;;;;;5.67;3.30;;;;;;;16.41;80.51;99299.26;1696442;84;25406;-64
2023/10/14 16:17:59;;;;;;;5.78;4.37;;;;;;;16.36;80.78;99303.69;1696475;84;25638;-64
2023/10/14 16:20:27;;;;;;;5.67;3.17;;;;;;;16.28;80.67;99319.20;1696591;84;26179;-63
2023/10/14 16:22:58;;;;;;;7.17;3.33;;;;;;;16.21;81.38;99325.34;1696457;84;25419;-64
2023/10/14 16:25:26;;;;;;;7.12;3.90;;;;;;;16.13;80.64;99339.27;1696467;84;28139;-65
2023/10/14 16:27:54;;;;;;;19.32;12.03;;;;;;;16.04;80.90;99342.27;1696338;84;25817;-62
2023/10/14 16:30:27;;;;;;;8.30;6.10;;;;;;;15.93;80.77;99347.56;1696417;84;25652;-62
2023/10/14 16:32:54;;;;;;;9.68;4.97;;;;;;;15.86;80.83;99342.01;1696117;84;26554;-61
2023/10/14 16:35:24;;;;;;;;;;;;;;;15.80;81.02;99338.82;1698977;84;25632;-63
2023/10/14 16:37:57;;;;;;;6.00;3.37;;;;;;;15.76;81.55;99335.83;1696478;84;28744;-63
2023/10/14 16:40:27;;;;;;;4.72;3.12;;;;;;;15.65;81.40;99339.14;1696343;84;25502;-62
2023/10/14 16:43:04;;;;;;;5.03;2.83;;;;;;;15.63;81.55;99359.73;1696745;84;27572;-63
2023/10/14 16:45:35;;;;;;;8.38;6.05;;;;;;;15.58;81.72;99363.58;1697937;83;25730;-66
2023/10/14 16:48:00;;;;;;;6.03;4.22;;;;;;;15.50;81.78;99353.70;1725831;83;25398;-64
2023/10/14 16:50:27;;;;;;;5.60;3.20;;;;;;;15.46;81.92;99354.20;1688388;85;28473;-64
2023/10/14 16:52:57;;;;;;;6.47;3.87;;;;;;;15.42;82.04;99357.45;1688344;85;25457;-64
2023/10/14 16:55:24;;;;;;;;;;;;;;;15.36;82.17;99381.50;1690963;85;25557;-64
2023/10/14 16:57:52;;;;;;;4.37;2.83;;;;;;;15.30;82.44;99372.83;1688414;85;25600;-65
2023/10/14 17:00:23;;;;;;;5.83;2.70;;;;;;;15.25;82.46;99362.23;1688412;84;25412;-68
2023/10/14 17:02:55;;;;;;;4.67;2.70;;;;;;;15.20;82.52;99372.65;1688453;85;27591;-67
2023/10/14 17:05:25;;;;;;;6.53;2.87;;;;;;;15.18;83.07;99379.05;1688324;85;25400;-66
2023/10/14 17:08:01;;;;;;;4.75;2.77;;;;;;;15.15;83.06;99390.66;1688415;85;25633;-65
2023/10/14 17:10:29;;;;;;;5.55;3.05;;;;;;;15.14;83.87;99402.12;1687026;84;25664;-65
2023/10/14 17:13:05;;;;;;;8.60;3.20;;;;;;;15.09;83.50;99410.02;1688462;85;25472;-65
2023/10/14 17:15:31;;;;;;;6.37;3.55;;;;;;;15.06;83.49;99412.67;1688303;84;27569;-65
2023/10/14 17:18:01;;;;;;;7.00;3.98;;;;;;;15.02;83.53;99413.19;1688313;85;26117;-67
2023/10/14 17:20:30;;;;;;;7.55;3.72;;;;;;;14.97;83.86;99415.63;1688406;85;25655;-68
2023/10/14 17:23:00;;;;;;;7.45;3.60;;;;;;;14.94;83.84;99413.03;1688257;84;25982;-67
2023/10/14 17:25:31;;;;;;;4.80;3.02;;;;;;;14.90;83.97;99406.74;1688457;85;25609;-68
2023/10/14 17:28:06;;;;;;;6.92;4.00;;;;;;;14.87;84.23;99404.73;1688453;85;28085;-68
2023/10/14 17:30:31;;;;;;;6.78;3.50;;;;;;;14.85;84.20;99400.23;1687423;84;25477;-68
2023/10/14 17:33:02;;;;;;;5.40;3.52;;;;;;;14.81;84.17;99397.98;1688652;85;25577;-65
2023/10/14 17:35:31;;;;;;;5.53;3.80;;;;;;;14.79;84.33;99400.29;1688371;85;25481;-69
2023/10/14 17:38:00;;;;;;;6.37;3.42;;;;;;;14.76;84.66;99392.83;1688628;85;25590;-63
2023/10/14 17:40:29;;;;;;;5.53;3.17;;;;;;;14.73;84.58;99393.58;1688488;85;27546;-59
2023/10/14 17:43:03;;;;;;;4.60;3.55;;;;;;;14.69;84.90;99419.37;1688438;85;25392;-58
2023/10/14 17:45:29;;;;;;;6.28;3.22;;;;;;;14.66;84.85;99414.63;1688197;84;25470;-59
2023/10/14 17:47:58;;;;;;;5.40;2.95;;;;;;;14.60;84.73;99407.88;1688349;84;26351;-61
2023/10/14 17:50:28;;;;;;;4.67;3.10;;;;;;;14.57;84.90;99416.17;1688526;85;25455;-58
2023/10/14 17:52:58;;;;;;;6.25;2.87;;;;;;;14.52;85.18;99416.45;1688582;84;27463;-59
2023/10/14 17:55:28;;;;;;;7.95;3.80;;;;;;;14.50;85.06;99417.94;1688320;85;25890;-58
2023/10/14 17:57:57;;;;;;;7.22;4.55;;;;;;;14.44;85.18;99420.17;1688383;85;25411;-60
2023/10/14 18:00:26;;;;;;;57.25;46.23;;;;;;;14.38;84.90;99418.28;1688437;85;26164;-61
2023/10/14 18:02:56;;;;;;;79.90;62.40;;;;;;;14.33;85.01;99432.73;1688419;85;25578;-62
2023/10/14 18:05:26;;;;;;;12.63;7.30;;;;;;;14.28;84.99;99424.85;1688379;85;27470;-62
2023/10/14 18:07:55;;;;;;;57.23;42.93;;;;;;;14.20;84.59;99423.34;1688279;84;25835;-62
2023/10/14 18:10:22;;;;;;;10.85;6.03;;;;;;;14.16;84.77;99419.73;1688525;85;25624;-62
2023/10/14 18:12:50;;;;;;;5.85;3.85;;;;;;;14.10;84.63;99423.89;1688355;85;25563;-61
2023/10/14 18:15:17;;;;;;;4.33;3.60;;;;;;;14.05;84.39;99432.31;1688412;85;25469;-62
2023/10/14 18:17:47;;;;;;;4.25;3.20;;;;;;;14.00;84.59;99435.30;1688349;85;27482;-61
2023/10/14 18:20:25;;;;;;;6.97;3.30;;;;;;;13.95;84.40;99439.66;1688252;85;25565;-58
2023/10/14 18:22:53;;;;;;;8.78;3.55;;;;;;;13.90;84.27;99440.70;1687804;84;25598;-57
2023/10/14 18:25:28;;;;;;;8.18;3.45;;;;;;;13.83;84.10;99452.19;1688382;85;26400;-58